Hastings Natural History Reservation, California Weather observations

Data are for 10 minute period ending at time listed.
 Day   Time   Solar   Ave.   Ave.  Ave.  Vector  Max.   Baro.   Total    
  of    of     Rad.   Air    Rel.  Wind   Wind   Wind  Press.  Precip.   
Year   Day            Temp.  Hum.  Speed  Dir.   Gust                    
2017   (PST)  Kw/m2    F      %     mph   deg.    mph    mb.     in.     
-------------------------------------------------------------------------
  18    0:30   0.00   44.8    56    1.5    71     3.4   954.0    0.00 
  18    0:40   0.00   45.1    53    1.2    66     3.4   953.9    0.00 
  18    0:50   0.00   46.2    49    2.5    54     4.9   953.8    0.00 
  18    1:00   0.00   47.6    46    1.9    58     3.9   953.6    0.00 
  18    1:10   0.00   48.2    45    1.4    38     3.1   953.7    0.00 
  18    1:20   0.00   47.8    47    1.2    45     3.2   953.5    0.00 
  18    1:30   0.00   47.4    47    1.3    49     2.6   953.3    0.00 
  18    1:40   0.00   47.1    48    1.2    61     2.0   953.6    0.00 
  18    1:50   0.00   45.7    55    2.2    54     3.7   954.0    0.00 
  18    2:00   0.00   44.4    59    1.3    63     2.4   954.4    0.00 
  18    2:10   0.00   42.9    64    1.5    51     2.5   954.4    0.00 
  18    2:20   0.00   42.4    64    0.4    67     3.4   954.5    0.00 
  18    2:30   0.00   42.4    62    0.3    88     2.4   954.3    0.00 
  18    2:40   0.00   42.2    66    0.2    98     1.6   954.1    0.00 
  18    2:50   0.00   41.3    69    1.3    53     2.4   954.4    0.00 
  18    3:00   0.00   40.2    70    1.7    52     2.5   954.7    0.00 
  18    3:10   0.00   39.5    73    0.5   188     1.8   954.5    0.00 
  18    3:20   0.00   38.8    75    1.2    70     2.4   954.1    0.00 
  18    3:30   0.00   38.0    76    0.7    66     2.3   953.7    0.00 
  18    3:40   0.00   37.8    77    1.1    57     2.0   953.5    0.00 
  18    3:50   0.00   37.6    77    1.2    49     2.6   953.7    0.00 
  18    4:00   0.00   38.4    74    1.2    98     3.0   953.6    0.00 
  18    4:10   0.00   39.8    69    0.9   243     3.7   953.7    0.00 
  18    4:20   0.00   39.6    71    1.1    60     2.5   953.6    0.00 
  18    4:30   0.00   40.0    71    1.2    75     2.9   953.3    0.00 
  18    4:40   0.00   40.1    71    0.5     4     1.8   953.5    0.00 
  18    4:50   0.00   40.2    71    0.8    51     2.0   953.7    0.00 
  18    5:00   0.00   40.3    71    0.6   208     1.8   953.9    0.00 
  18    5:10   0.00   40.2    73    1.3    50     2.6   954.0    0.00 
  18    5:20   0.00   40.2    74    0.6    62     1.9   953.7    0.00 
  18    5:30   0.00   40.5    73    0.1    62     1.1   953.5    0.00 
  18    5:40   0.00   40.6    73    0.5    18     1.4   953.7    0.00 
  18    5:50   0.00   41.3    70    0.3    77     1.5   953.7    0.00 
  18    6:00   0.00   41.5    70    0.2   180     0.9   953.8    0.00 
  18    6:10   0.00   41.9    69    0.5    81     1.0   953.6    0.00 
  18    6:20   0.00   41.9    69    1.4   247     3.6   953.7    0.00 
  18    6:30   0.00   42.1    68    0.7    66     2.2   953.6    0.00 
  18    6:40   0.00   42.1    71    1.3   262     4.1   954.0    0.00 
  18    6:50   0.00   42.0    74    0.4    70     2.3   954.3    0.00 
  18    7:00   0.00   41.7    80    0.6   124     2.0   954.2    0.01 
  18    7:10   0.00   41.5    83    0.7    53     2.0   954.2    0.00 
  18    7:20   0.00   41.6    85    1.4    66     4.7   953.7    0.00 
  18    7:30   0.00   42.5    83    0.7    98     2.6   953.5    0.01 
  18    7:40   0.00   42.5    86    0.6   104     2.4   953.5    0.01 
  18    7:50   0.00   42.1    88    0.1   232     1.2   953.5    0.01 
  18    8:00   0.00   42.3    90    0.3    91     2.0   953.1    0.00 
  18    8:10   0.01   42.5    91    0.6   230     1.8   952.9    0.00 
  18    8:20   0.01   42.7    92    1.4    63     3.7   952.8    0.00 
  18    8:30   0.01   43.1    92    1.6    53     3.3   952.6    0.00 
  18    8:40   0.03   43.4    89    0.8    26     2.7   952.7    0.00 
  18    8:50   0.04   43.4    88    2.3    52     5.0   952.9    0.00 
  18    9:00   0.05   43.7    85    0.9    18     4.3   952.6    0.01 
  18    9:10   0.06   44.0    86    0.9   261     2.5   952.3    0.00 
  18    9:20   0.04   44.4    85    0.9   271     2.5   952.0    0.00 
  18    9:30   0.03   44.7    83    1.0   283     3.6   952.3    0.00 
  18    9:40   0.03   44.9    79    1.4   246     4.8   952.6    0.00 
  18    9:50   0.02   44.8    80    2.5    59     4.9   952.3    0.00 
  18   10:00   0.01   44.9    78    1.6    45     4.3   952.2    0.00 
  18   10:10   0.01   44.7    81    1.5    55     2.8   952.3    0.00 
  18   10:20   0.01   44.6    79    2.4    54     4.2   952.5    0.00 
  18   10:30   0.01   45.3    73    1.0   231     2.7   952.5    0.00 
  18   10:40   0.01   45.2    77    1.1    43     2.8   953.2    0.00 
  18   10:50   0.02   45.0    78    1.8    45     3.5   954.1    0.00 
  18   11:00   0.03   45.2    78    1.2    49     3.5   954.4    0.01 
  18   11:10   0.04   45.1    80    1.2   126     4.2   954.7    0.01 
  18   11:20   0.04   44.9    84    1.0   126     2.4   954.5    0.01 
  18   11:30   0.03   44.8    87    0.7   198     2.3   954.4    0.00 
  18   11:40   0.03   44.6    87    0.9    52     4.2   954.3    0.00 
  18   11:50   0.03   44.8    84    1.6    70     4.5   954.0    0.00 
  18   12:00   0.03   44.9    86    1.3    98     3.5   953.9    0.01 
  18   12:10   0.03   44.9    87    0.6   116     3.3   953.7    0.00 
  18   12:20   0.02   45.0    89    0.8    49     2.3   953.3    0.00 
  18   12:30   0.03   45.1    88    0.5    28     2.6   953.1    0.00 
  18   12:40   0.03   45.7    85    0.5   297     2.6   953.0    0.01 
  18   12:50   0.03   45.6    86    0.8   284     2.5   952.8    0.00 
  18   13:00   0.03   45.7    86    1.2    57     6.6   952.2    0.00 
  18   13:10   0.03   46.0    83    2.0    27     7.3   951.7    0.00 
  18   13:20   0.03   46.5    81    2.8    34     9.9   951.6    0.02 
  18   13:30   0.04   46.7    81    2.3    50     5.8   951.5    0.01 
  18   13:40   0.05   46.9    83    1.5    22     4.9   951.3    0.00 
  18   13:50   0.05   46.9    85    1.6    24     5.3   951.3    0.02 
  18   14:00   0.06   47.2    85    1.2    30     3.9   951.1    0.00 
  18   14:10   0.04   47.4    85    0.8   255     4.1   951.0    0.01 
  18   14:20   0.03   47.3    86    2.3    41     5.8   950.9    0.00 
  18   14:30   0.02   47.6    83    2.4    53     7.2   950.7    0.01 
  18   14:40   0.02   47.7    83    1.3    42     3.9   950.5    0.01 
  18   14:50   0.03   47.7    84    3.9    43     9.1   950.2    0.01 
  18   15:00   0.02   47.8    82    5.3    53    10.1   949.6    0.00 
  18   15:10   0.01   48.0    81    4.6    48     9.6   949.0    0.01 
  18   15:20   0.01   47.7    82    4.8    45    10.7   948.8    0.00 
  18   15:30   0.01   47.8    81    6.7    50    14.2   948.4    0.01 
  18   15:40   0.01   47.8    81    5.9    39    14.8   947.7    0.00 
  18   15:50   0.01   48.0    81    4.1    39    12.0   947.8    0.00 
  18   16:00   0.01   48.0    81    3.8    46     9.5   948.1    0.00 
  18   16:10   0.00   48.0    81    5.0    36    15.8   948.1    0.00 
  18   16:20   0.00   48.1    81    4.9    50    10.0   947.9    0.01 
  18   16:30   0.00   48.0    82    3.8    39    15.1   947.3    0.00 
  18   16:40   0.01   48.1    81    5.7    38    13.4   947.1    0.00 
  18   16:50   0.00   48.6    79    8.1    47    15.3   947.1    0.00 
  18   17:00   0.00   48.6    79    7.0    47    16.2   947.0    0.00 
  18   17:10   0.00   48.6    79    6.5    53    16.1   947.0    0.00 
  18   17:20   0.00   48.8    79    6.5    57    14.5   946.8    0.01 
  18   17:30   0.00   48.7    80    5.4    44    15.6   946.6    0.00 
  18   17:40   0.00   48.5    82    4.2    42    10.5   946.4    0.00 
  18   17:50   0.00   48.4    83    3.5    37     9.0   946.1    0.01 
  18   18:00   0.00   48.2    84    4.0    32     8.3   946.0    0.00 
  18   18:10   0.00   48.1    85    2.9    39     8.6   945.9    0.00 
  18   18:20   0.00   48.0    85    2.7    44     6.8   945.6    0.00 
  18   18:30   0.00   47.8    87    2.2    38     8.8   945.7    0.01 
  18   18:40   0.00   47.6    88    2.5    36     8.9   945.6    0.00 
  18   18:50   0.00   47.7    88    2.0    35     6.5   945.5    0.00 
  18   19:00   0.00   47.7    88    4.2    46    14.2   945.3    0.01 
  18   19:10   0.00   47.7    87    3.2    38    11.9   945.1    0.00 
  18   19:20   0.00   47.7    88    3.2    36    12.3   944.7    0.01 
  18   19:30   0.00   48.7    82    2.6    40     8.6   944.9    0.00 
  18   19:40   0.00   48.9    81    3.2   316     8.3   945.0    0.01 
  18   19:50   0.00   48.8    80    3.6   262     9.3   945.4    0.00 
  18   20:00   0.00   48.8    80    2.2   167    11.6   945.5    0.01 
  18   20:10   0.00   49.5    74    5.1   250    23.1   945.5    0.01 
  18   20:20   0.00   49.5    75    5.0   247    17.0   945.4    0.01 
  18   20:30   0.00   49.4    74    4.3   281    13.4   945.2    0.00 
  18   20:40   0.00   49.9    74    5.0   243    14.8   945.9    0.03 
  18   20:50   0.00   49.4    77    3.7   277    11.2   946.3    0.03 
  18   21:00   0.00   48.8    81    3.5   267     9.4   946.7    0.01 
  18   21:10   0.00   48.2    84    2.6   260    11.5   946.8    0.01 
  18   21:20   0.00   48.4    84    1.6   291     7.1   946.7    0.00 
  18   21:30   0.00   47.9    87    1.6    66     4.2   946.8    0.01 
  18   21:40   0.00   47.7    89    1.1    61     3.4   946.7    0.00 
  18   21:50   0.00   47.6    90    0.8    79     2.9   947.0    0.01 
  18   22:00   0.00   47.4    91    1.9    50     4.7   946.9    0.00 
  18   22:10   0.00   47.5    91    0.7    32     3.2   946.8    0.01 
  18   22:20   0.00   47.3    92    0.8    61     3.1   946.7    0.00 
  18   22:30   0.00   47.2    92    1.9    56     4.8   946.6    0.00 
  18   22:40   0.00   46.9    93    1.6   266     6.1   946.6    0.00 
  18   22:50   0.00   46.6    93    1.4    56     3.7   946.7    0.01 
  18   23:00   0.00   46.8    94    1.2    61     3.4   946.9    0.00 
  18   23:10   0.00   46.8    94    1.1    50     2.2   946.9    0.01 
  18   23:20   0.00   46.5    94    1.6    51     5.0   946.8    0.00 
  18   23:30   0.00   46.5    95    0.7   221     2.6   946.9    0.00 
  18   23:40   0.00   46.5    95    1.5   223     3.7   947.2    0.00 
  18   23:50   0.00   46.2    95    1.2    49     2.6   947.3    0.01 
  19    0:00   0.00   46.0    96    0.7    67     2.1   947.3    0.00 
  19    0:10   0.00   45.9    96    0.9   187     3.0   947.3    0.02 
  19    0:20   0.00   46.3    96    0.5   184     2.2   947.4    0.00 

Return to Hastings Natural History Reservation graphs page.


Western Regional Climate Center,wrcc@dri.edu